Heralds Prairie, Illinois
Current Conditions -  °F | °C
As of 6:55 PM on Tuesday 21 Oct 2014 (Local Time) from KCUL Reporting Station
Clear Clear  
Wind Chill: 54°   Ceiling: Unl
Heat Index: 54°   Visibility: 10mi
Dew Point: 44°   Wind: 6mph
Humidity: 68%   Direction: 20°NNE
Pressure: 30.13"   Gusts: NA
Location:  37.9739°N, 88.3193°W
Report Text: KCUL 212355Z AUTO 02005KT 10SM CLR 12/07 A3013 RMK AO2 T01230066 10199 20123
Loading
Personal Weather Stations






























Interactive Weather Map
Tropical Storm Tracking
New forecast layout! Learn more

10-Day Weather Forecast

Advertisements
Track Severe Weather on mobile